sensor_id;sensor_type;location;lat;lon;timestamp;pressure;altitude;pressure_sealevel;temperature;humidity
3428;BME280;1727;42.624;23.406;2023-04-19T00:01:28;94475.75;;;12.01;86.63
3428;BME280;1727;42.624;23.406;2023-04-19T00:03:55;94464.94;;;12.04;86.62
3428;BME280;1727;42.624;23.406;2023-04-19T00:06:22;94457.72;;;12.06;86.41
3428;BME280;1727;42.624;23.406;2023-04-19T00:08:50;94464.19;;;12.12;86.63
3428;BME280;1727;42.624;23.406;2023-04-19T00:11:16;94461.28;;;12.15;86.95
3428;BME280;1727;42.624;23.406;2023-04-19T00:13:43;94465.94;;;12.21;86.14
3428;BME280;1727;42.624;23.406;2023-04-19T00:16:11;94452.34;;;12.26;86.66
3428;BME280;1727;42.624;23.406;2023-04-19T00:18:38;94459.75;;;12.30;86.81
3428;BME280;1727;42.624;23.406;2023-04-19T00:21:06;94445.63;;;12.31;86.41
3428;BME280;1727;42.624;23.406;2023-04-19T00:23:33;94452.75;;;12.39;85.96
3428;BME280;1727;42.624;23.406;2023-04-19T00:26:01;94454.25;;;12.41;85.88
3428;BME280;1727;42.624;23.406;2023-04-19T00:28:28;94445.38;;;12.43;84.53
3428;BME280;1727;42.624;23.406;2023-04-19T00:30:55;94446.38;;;12.41;84.73
3428;BME280;1727;42.624;23.406;2023-04-19T00:33:23;94449.97;;;12.40;85.02
3428;BME280;1727;42.624;23.406;2023-04-19T00:35:50;94433.16;;;12.33;84.48
3428;BME280;1727;42.624;23.406;2023-04-19T00:38:17;94431.34;;;12.34;85.04
3428;BME280;1727;42.624;23.406;2023-04-19T00:40:43;94443.72;;;12.41;85.31
3428;BME280;1727;42.624;23.406;2023-04-19T00:43:11;94442.75;;;12.43;85.77
3428;BME280;1727;42.624;23.406;2023-04-19T00:45:37;94443.16;;;12.48;85.76
3428;BME280;1727;42.624;23.406;2023-04-19T00:48:04;94435.94;;;12.50;85.78
3428;BME280;1727;42.624;23.406;2023-04-19T00:50:33;94429.69;;;12.51;85.71
3428;BME280;1727;42.624;23.406;2023-04-19T00:53:01;94441.56;;;12.55;85.63
3428;BME280;1727;42.624;23.406;2023-04-19T00:55:28;94436.13;;;12.56;85.70
3428;BME280;1727;42.624;23.406;2023-04-19T00:57:55;94436.66;;;12.60;85.78
3428;BME280;1727;42.624;23.406;2023-04-19T01:00:22;94433.72;;;12.63;85.97
3428;BME280;1727;42.624;23.406;2023-04-19T01:02:49;94434.53;;;12.63;86.05
3428;BME280;1727;42.624;23.406;2023-04-19T01:05:17;94423.50;;;12.60;85.79
3428;BME280;1727;42.624;23.406;2023-04-19T01:07:45;94428.75;;;12.60;85.79
3428;BME280;1727;42.624;23.406;2023-04-19T01:10:12;94428.25;;;12.56;85.92
3428;BME280;1727;42.624;23.406;2023-04-19T01:12:38;94425.03;;;12.45;85.32
3428;BME280;1727;42.624;23.406;2023-04-19T01:15:07;94428.72;;;12.34;86.26
3428;BME280;1727;42.624;23.406;2023-04-19T01:17:34;94431.13;;;12.27;86.47
3428;BME280;1727;42.624;23.406;2023-04-19T01:20:02;94431.06;;;12.19;86.92
3428;BME280;1727;42.624;23.406;2023-04-19T01:22:31;94429.56;;;12.17;86.71
3428;BME280;1727;42.624;23.406;2023-04-19T01:24:58;94426.69;;;12.10;86.86
3428;BME280;1727;42.624;23.406;2023-04-19T01:27:26;94426.78;;;12.00;87.05
3428;BME280;1727;42.624;23.406;2023-04-19T01:29:52;94429.19;;;11.94;87.27
3428;BME280;1727;42.624;23.406;2023-04-19T01:32:22;94423.84;;;11.86;87.37
3428;BME280;1727;42.624;23.406;2023-04-19T01:34:51;94419.84;;;11.82;87.66
3428;BME280;1727;42.624;23.406;2023-04-19T01:37:18;94410.16;;;11.82;87.27
3428;BME280;1727;42.624;23.406;2023-04-19T01:39:46;94408.66;;;11.79;87.41
3428;BME280;1727;42.624;23.406;2023-04-19T01:42:13;94417.47;;;11.88;87.33
3428;BME280;1727;42.624;23.406;2023-04-19T01:44:40;94418.97;;;11.91;87.07
3428;BME280;1727;42.624;23.406;2023-04-19T01:47:06;94417.16;;;11.91;86.70
3428;BME280;1727;42.624;23.406;2023-04-19T01:49:33;94409.97;;;11.93;87.58
3428;BME280;1727;42.624;23.406;2023-04-19T01:52:00;94410.47;;;11.97;87.51
3428;BME280;1727;42.624;23.406;2023-04-19T01:54:27;94410.47;;;11.97;87.95
3428;BME280;1727;42.624;23.406;2023-04-19T01:56:55;94401.31;;;12.01;87.71
3428;BME280;1727;42.624;23.406;2023-04-19T01:59:22;94412.13;;;11.98;87.02
3428;BME280;1727;42.624;23.406;2023-04-19T02:01:48;94399.28;;;11.95;86.51
3428;BME280;1727;42.624;23.406;2023-04-19T02:04:17;94396.72;;;11.85;87.42
3428;BME280;1727;42.624;23.406;2023-04-19T02:06:44;94408.31;;;11.92;87.28
3428;BME280;1727;42.624;23.406;2023-04-19T02:09:11;94401.69;;;11.88;87.28
3428;BME280;1727;42.624;23.406;2023-04-19T02:11:37;94402.38;;;11.90;86.71
3428;BME280;1727;42.624;23.406;2023-04-19T02:14:06;94402.06;;;11.93;86.76
3428;BME280;1727;42.624;23.406;2023-04-19T02:16:32;94403.91;;;11.83;86.93
3428;BME280;1727;42.624;23.406;2023-04-19T02:18:59;94400.47;;;11.83;87.69
3428;BME280;1727;42.624;23.406;2023-04-19T02:21:26;94405.31;;;11.77;88.03
3428;BME280;1727;42.624;23.406;2023-04-19T02:23:53;94402.03;;;11.75;87.67
3428;BME280;1727;42.624;23.406;2023-04-19T02:26:20;94410.94;;;11.65;88.20
3428;BME280;1727;42.624;23.406;2023-04-19T02:28:49;94409.63;;;11.51;88.64
3428;BME280;1727;42.624;23.406;2023-04-19T02:31:18;94409.63;;;11.51;89.42
3428;BME280;1727;42.624;23.406;2023-04-19T02:33:45;94405.28;;;11.42;90.04
3428;BME280;1727;42.624;23.406;2023-04-19T02:36:12;94401.16;;;11.39;89.87
3428;BME280;1727;42.624;23.406;2023-04-19T02:38:38;94405.28;;;11.42;90.58
3428;BME280;1727;42.624;23.406;2023-04-19T02:41:05;94411.06;;;11.45;89.99
3428;BME280;1727;42.624;23.406;2023-04-19T02:43:32;94406.41;;;11.39;91.39
3428;BME280;1727;42.624;23.406;2023-04-19T02:46:00;94409.03;;;11.39;91.46
3428;BME280;1727;42.624;23.406;2023-04-19T02:48:28;94403.16;;;11.28;92.12
3428;BME280;1727;42.624;23.406;2023-04-19T02:50:55;94404.25;;;11.25;91.48
3428;BME280;1727;42.624;23.406;2023-04-19T02:53:22;94404.81;;;11.29;92.46
3428;BME280;1727;42.624;23.406;2023-04-19T02:55:49;94404.81;;;11.29;92.10
3428;BME280;1727;42.624;23.406;2023-04-19T02:58:16;94407.56;;;11.27;92.06
3428;BME280;1727;42.624;23.406;2023-04-19T03:00:43;94407.03;;;11.24;92.50
3428;BME280;1727;42.624;23.406;2023-04-19T03:03:09;94400.94;;;11.23;92.71
3428;BME280;1727;42.624;23.406;2023-04-19T03:05:37;94396.28;;;11.17;93.24
3428;BME280;1727;42.624;23.406;2023-04-19T03:08:04;94401.81;;;11.14;93.02
3428;BME280;1727;42.624;23.406;2023-04-19T03:10:31;94399.50;;;11.11;93.06
3428;BME280;1727;42.624;23.406;2023-04-19T03:13:00;94397.53;;;11.13;92.73
3428;BME280;1727;42.624;23.406;2023-04-19T03:15:26;94403.00;;;11.02;92.93
3428;BME280;1727;42.624;23.406;2023-04-19T03:17:53;94401.72;;;11.06;92.80
3428;BME280;1727;42.624;23.406;2023-04-19T03:20:20;94391.81;;;11.00;93.27
3428;BME280;1727;42.624;23.406;2023-04-19T03:22:48;94402.56;;;11.06;93.01
3428;BME280;1727;42.624;23.406;2023-04-19T03:25:15;94395.50;;;11.07;93.28
3428;BME280;1727;42.624;23.406;2023-04-19T03:27:42;94386.44;;;10.92;93.26
3428;BME280;1727;42.624;23.406;2023-04-19T03:30:12;94388.38;;;10.99;93.30
3428;BME280;1727;42.624;23.406;2023-04-19T03:32:39;94382.41;;;10.97;92.44
3428;BME280;1727;42.624;23.406;2023-04-19T03:35:08;94396.19;;;11.09;93.02
3428;BME280;1727;42.624;23.406;2023-04-19T03:37:35;94393.84;;;11.06;92.42
3428;BME280;1727;42.624;23.406;2023-04-19T03:40:03;94403.41;;;10.97;92.53
3428;BME280;1727;42.624;23.406;2023-04-19T03:42:30;94398.03;;;10.99;92.68
3428;BME280;1727;42.624;23.406;2023-04-19T03:44:57;94398.03;;;10.99;92.72
3428;BME280;1727;42.624;23.406;2023-04-19T03:47:24;94385.44;;;11.02;91.45
3428;BME280;1727;42.624;23.406;2023-04-19T03:49:50;94394.78;;;11.14;91.37
3428;BME280;1727;42.624;23.406;2023-04-19T03:52:17;94395.59;;;11.15;90.83
3428;BME280;1727;42.624;23.406;2023-04-19T03:54:44;94392.16;;;11.14;90.33
3428;BME280;1727;42.624;23.406;2023-04-19T03:57:12;94397.41;;;11.14;91.09
3428;BME280;1727;42.624;23.406;2023-04-19T03:59:39;94401.00;;;11.13;90.34
3428;BME280;1727;42.624;23.406;2023-04-19T04:02:06;94385.97;;;11.06;90.44
3428;BME280;1727;42.624;23.406;2023-04-19T04:04:33;94399.94;;;11.06;90.73
3428;BME280;1727;42.624;23.406;2023-04-19T04:07:00;94403.81;;;11.02;91.11
3428;BME280;1727;42.624;23.406;2023-04-19T04:09:27;94405.06;;;10.98;91.16
3428;BME280;1727;42.624;23.406;2023-04-19T04:11:53;94394.97;;;11.03;91.49
3428;BME280;1727;42.624;23.406;2023-04-19T04:14:22;94407.97;;;11.05;91.77
3428;BME280;1727;42.624;23.406;2023-04-19T04:16:49;94409.22;;;11.01;91.55
3428;BME280;1727;42.624;23.406;2023-04-19T04:19:16;94412.09;;;10.98;91.13
3428;BME280;1727;42.624;23.406;2023-04-19T04:21:46;94412.94;;;10.98;91.30
3428;BME280;1727;42.624;23.406;2023-04-19T04:24:13;94409.25;;;10.91;91.33
3428;BME280;1727;42.624;23.406;2023-04-19T04:26:40;94410.19;;;11.00;91.49
3428;BME280;1727;42.624;23.406;2023-04-19T04:29:07;94416.28;;;11.00;91.40
3428;BME280;1727;42.624;23.406;2023-04-19T04:31:35;94416.81;;;10.94;92.42
3428;BME280;1727;42.624;23.406;2023-04-19T04:34:02;94418.22;;;10.89;91.74
3428;BME280;1727;42.624;23.406;2023-04-19T04:36:29;94408.94;;;10.94;92.05
3428;BME280;1727;42.624;23.406;2023-04-19T04:38:57;94413.22;;;10.95;91.96
3428;BME280;1727;42.624;23.406;2023-04-19T04:41:26;94422.06;;;10.94;92.17
3428;BME280;1727;42.624;23.406;2023-04-19T04:43:55;94417.41;;;10.88;92.50
3428;BME280;1727;42.624;23.406;2023-04-19T04:46:22;94412.44;;;10.85;93.23
3428;BME280;1727;42.624;23.406;2023-04-19T04:48:51;94423.19;;;10.92;93.54
3428;BME280;1727;42.624;23.406;2023-04-19T04:51:18;94425.94;;;11.00;93.65
3428;BME280;1727;42.624;23.406;2023-04-19T04:53:44;94416.34;;;10.81;92.13
3428;BME280;1727;42.624;23.406;2023-04-19T04:56:11;94416.94;;;11.02;100.00
3428;BME280;1727;42.624;23.406;2023-04-19T04:58:38;94417.94;;;11.01;97.26
3428;BME280;1727;42.624;23.406;2023-04-19T05:01:05;94415.41;;;11.09;96.42
3428;BME280;1727;42.624;23.406;2023-04-19T05:03:31;94414.13;;;11.13;98.83
3428;BME280;1727;42.624;23.406;2023-04-19T05:06:00;94411.50;;;11.13;96.81
3428;BME280;1727;42.624;23.406;2023-04-19T05:08:27;94411.06;;;11.18;98.80
3428;BME280;1727;42.624;23.406;2023-04-19T05:10:54;94424.53;;;11.05;96.83
3428;BME280;1727;42.624;23.406;2023-04-19T05:13:21;94424.94;;;11.10;94.17
3428;BME280;1727;42.624;23.406;2023-04-19T05:15:47;94424.97;;;11.01;93.85
3428;BME280;1727;42.624;23.406;2023-04-19T05:18:14;94432.03;;;11.00;95.46
3428;BME280;1727;42.624;23.406;2023-04-19T05:20:41;94428.69;;;10.98;93.34
3428;BME280;1727;42.624;23.406;2023-04-19T05:23:09;94432.41;;;11.05;96.24
3428;BME280;1727;42.624;23.406;2023-04-19T05:25:36;94431.16;;;11.09;94.58
3428;BME280;1727;42.624;23.406;2023-04-19T05:28:03;94424.84;;;11.02;93.77
3428;BME280;1727;42.624;23.406;2023-04-19T05:30:30;94427.16;;;11.05;95.04
3428;BME280;1727;42.624;23.406;2023-04-19T05:32:57;94435.00;;;11.15;94.37
3428;BME280;1727;42.624;23.406;2023-04-19T05:35:24;94436.94;;;11.13;93.31
3428;BME280;1727;42.624;23.406;2023-04-19T05:37:51;94434.50;;;10.92;92.60
3428;BME280;1727;42.624;23.406;2023-04-19T05:40:19;94438.00;;;10.83;93.59
3428;BME280;1727;42.624;23.406;2023-04-19T05:42:48;94422.69;;;10.69;94.05
3428;BME280;1727;42.624;23.406;2023-04-19T05:45:14;94430.47;;;10.61;95.57
3428;BME280;1727;42.624;23.406;2023-04-19T05:47:42;94431.03;;;10.54;95.35
3428;BME280;1727;42.624;23.406;2023-04-19T05:50:09;94427.88;;;10.51;97.49
3428;BME280;1727;42.624;23.406;2023-04-19T05:52:36;94439.59;;;10.57;98.03
3428;BME280;1727;42.624;23.406;2023-04-19T05:55:04;94438.03;;;10.64;99.08
3428;BME280;1727;42.624;23.406;2023-04-19T05:57:32;94430.22;;;10.44;96.11
3428;BME280;1727;42.624;23.406;2023-04-19T05:59:59;94433.41;;;10.48;96.24
3428;BME280;1727;42.624;23.406;2023-04-19T06:02:26;94424.84;;;10.46;96.73
3428;BME280;1727;42.624;23.406;2023-04-19T06:04:53;94431.59;;;10.48;97.29
3428;BME280;1727;42.624;23.406;2023-04-19T06:07:19;94428.66;;;10.61;96.91
3428;BME280;1727;42.624;23.406;2023-04-19T06:09:46;94430.47;;;10.70;96.13
3428;BME280;1727;42.624;23.406;2023-04-19T06:12:13;94431.28;;;10.71;96.41
3428;BME280;1727;42.624;23.406;2023-04-19T06:14:41;94432.53;;;10.57;96.57
3428;BME280;1727;42.624;23.406;2023-04-19T06:17:08;94433.91;;;10.61;96.38
3428;BME280;1727;42.624;23.406;2023-04-19T06:19:35;94434.16;;;10.68;96.82
3428;BME280;1727;42.624;23.406;2023-04-19T06:22:01;94441.50;;;10.74;95.89
3428;BME280;1727;42.624;23.406;2023-04-19T06:24:28;94446.03;;;10.81;95.77
3428;BME280;1727;42.624;23.406;2023-04-19T06:26:56;94442.97;;;10.86;95.20
3428;BME280;1727;42.624;23.406;2023-04-19T06:29:22;94442.53;;;10.91;94.07
3428;BME280;1727;42.624;23.406;2023-04-19T06:31:51;94442.69;;;10.89;94.14
3428;BME280;1727;42.624;23.406;2023-04-19T06:34:18;94442.81;;;10.88;94.53
3428;BME280;1727;42.624;23.406;2023-04-19T06:36:45;94446.81;;;11.01;97.68
3428;BME280;1727;42.624;23.406;2023-04-19T06:39:11;94445.94;;;11.10;94.10
3428;BME280;1727;42.624;23.406;2023-04-19T06:41:38;94444.66;;;11.14;93.96
3428;BME280;1727;42.624;23.406;2023-04-19T06:44:05;94452.63;;;11.23;94.36
3428;BME280;1727;42.624;23.406;2023-04-19T06:46:32;94453.19;;;11.26;93.01
3428;BME280;1727;42.624;23.406;2023-04-19T06:49:00;94445.91;;;11.47;96.64
3428;BME280;1727;42.624;23.406;2023-04-19T06:51:27;94447.50;;;11.58;93.34
3428;BME280;1727;42.624;23.406;2023-04-19T06:53:54;94453.84;;;11.65;92.36
3428;BME280;1727;42.624;23.406;2023-04-19T06:56:38;94457.31;;;11.84;93.12
3428;BME280;1727;42.624;23.406;2023-04-19T06:59:06;94458.94;;;11.94;90.17
3428;BME280;1727;42.624;23.406;2023-04-19T07:01:33;94464.41;;;12.01;89.77
3428;BME280;1727;42.624;23.406;2023-04-19T07:04:01;94463.75;;;12.17;88.68
3428;BME280;1727;42.624;23.406;2023-04-19T07:06:28;94467.66;;;12.30;88.09
3428;BME280;1727;42.624;23.406;2023-04-19T07:08:55;94464.88;;;12.32;86.71
3428;BME280;1727;42.624;23.406;2023-04-19T07:11:21;94470.06;;;12.24;86.42
3428;BME280;1727;42.624;23.406;2023-04-19T07:13:49;94464.28;;;12.20;86.62
3428;BME280;1727;42.624;23.406;2023-04-19T07:16:16;94458.50;;;12.17;88.27
3428;BME280;1727;42.624;23.406;2023-04-19T07:18:42;94464.03;;;12.14;85.95
3428;BME280;1727;42.624;23.406;2023-04-19T07:21:11;94461.81;;;12.19;86.32
3428;BME280;1727;42.624;23.406;2023-04-19T07:23:38;94455.53;;;12.37;86.14
3428;BME280;1727;42.624;23.406;2023-04-19T07:26:04;94463.69;;;12.70;85.21
3428;BME280;1727;42.624;23.406;2023-04-19T07:28:31;94465.31;;;13.15;85.73
3428;BME280;1727;42.624;23.406;2023-04-19T07:30:58;94458.47;;;13.22;82.16
3428;BME280;1727;42.624;23.406;2023-04-19T07:33:26;94468.84;;;13.23;81.33
3428;BME280;1727;42.624;23.406;2023-04-19T07:35:53;94467.78;;;13.16;82.22
3428;BME280;1727;42.624;23.406;2023-04-19T07:38:22;94459.53;;;13.11;81.27
3428;BME280;1727;42.624;23.406;2023-04-19T07:40:49;94466.31;;;13.14;81.16
3428;BME280;1727;42.624;23.406;2023-04-19T07:43:16;94467.09;;;13.32;82.55
3428;BME280;1727;42.624;23.406;2023-04-19T07:45:43;94468.91;;;13.31;81.67
3428;BME280;1727;42.624;23.406;2023-04-19T07:48:10;94461.34;;;13.37;80.91
3428;BME280;1727;42.624;23.406;2023-04-19T07:50:37;94472.94;;;13.52;79.90
3428;BME280;1727;42.624;23.406;2023-04-19T07:53:04;94467.66;;;13.52;78.80
3428;BME280;1727;42.624;23.406;2023-04-19T07:55:32;94467.75;;;13.68;78.74
3428;BME280;1727;42.624;23.406;2023-04-19T07:57:59;94463.81;;;13.72;78.44
3428;BME280;1727;42.624;23.406;2023-04-19T08:00:27;94473.88;;;13.77;76.95
3428;BME280;1727;42.624;23.406;2023-04-19T08:02:55;94463.63;;;13.66;76.84
3428;BME280;1727;42.624;23.406;2023-04-19T08:05:22;94464.25;;;13.59;78.02
3428;BME280;1727;42.624;23.406;2023-04-19T08:07:51;94470.81;;;13.55;78.05
3428;BME280;1727;42.624;23.406;2023-04-19T08:10:19;94473.34;;;13.31;78.45
3428;BME280;1727;42.624;23.406;2023-04-19T08:12:47;94470.72;;;13.31;79.78
3428;BME280;1727;42.624;23.406;2023-04-19T08:15:15;94465.28;;;13.32;79.97
3428;BME280;1727;42.624;23.406;2023-04-19T08:17:42;94461.84;;;13.32;79.07
3428;BME280;1727;42.624;23.406;2023-04-19T08:20:10;94463.50;;;13.33;80.32
3428;BME280;1727;42.624;23.406;2023-04-19T08:22:37;94468.44;;;13.36;79.13
3428;BME280;1727;42.624;23.406;2023-04-19T08:25:06;94466.66;;;13.45;79.62
3428;BME280;1727;42.624;23.406;2023-04-19T08:27:33;94471.03;;;13.62;79.30
3428;BME280;1727;42.624;23.406;2023-04-19T08:30:01;94463.16;;;13.70;80.00
3428;BME280;1727;42.624;23.406;2023-04-19T08:32:29;94459.91;;;13.92;80.60
3428;BME280;1727;42.624;23.406;2023-04-19T08:34:56;94465.22;;;14.09;78.59
3428;BME280;1727;42.624;23.406;2023-04-19T08:37:22;94460.94;;;14.16;76.73
3428;BME280;1727;42.624;23.406;2023-04-19T08:39:49;94465.25;;;14.17;76.10
3428;BME280;1727;42.624;23.406;2023-04-19T08:42:17;94452.22;;;14.23;75.74
3428;BME280;1727;42.624;23.406;2023-04-19T08:44:45;94456.69;;;14.23;74.66
3428;BME280;1727;42.624;23.406;2023-04-19T08:47:16;94458.78;;;14.11;75.10
3428;BME280;1727;42.624;23.406;2023-04-19T08:49:44;94452.19;;;13.99;76.47
3428;BME280;1727;42.624;23.406;2023-04-19T08:52:12;94452.34;;;13.89;76.83
3428;BME280;1727;42.624;23.406;2023-04-19T08:54:40;94453.66;;;13.93;77.77
3428;BME280;1727;42.624;23.406;2023-04-19T08:57:07;94453.00;;;13.91;77.32
3428;BME280;1727;42.624;23.406;2023-04-19T08:59:34;94439.09;;;13.81;77.01
3428;BME280;1727;42.624;23.406;2023-04-19T09:02:01;94444.09;;;13.92;77.05
3428;BME280;1727;42.624;23.406;2023-04-19T09:04:29;94442.94;;;13.95;77.48
3428;BME280;1727;42.624;23.406;2023-04-19T09:06:56;94442.63;;;14.06;77.13
3428;BME280;1727;42.624;23.406;2023-04-19T09:09:24;94446.09;;;14.15;76.69
3428;BME280;1727;42.624;23.406;2023-04-19T09:11:51;94435.75;;;14.21;75.86
3428;BME280;1727;42.624;23.406;2023-04-19T09:14:20;94445.97;;;14.33;74.60
3428;BME280;1727;42.624;23.406;2023-04-19T09:16:48;94440.03;;;14.39;74.30
3428;BME280;1727;42.624;23.406;2023-04-19T09:19:16;94441.91;;;14.46;74.66
3428;BME280;1727;42.624;23.406;2023-04-19T09:21:45;94444.38;;;14.48;73.05
3428;BME280;1727;42.624;23.406;2023-04-19T09:24:12;94433.16;;;14.54;74.22
3428;BME280;1727;42.624;23.406;2023-04-19T09:26:39;94439.75;;;14.50;73.53
3428;BME280;1727;42.624;23.406;2023-04-19T09:29:19;94433.47;;;14.51;73.30
3428;BME280;1727;42.624;23.406;2023-04-19T09:31:55;94430.34;;;14.47;74.26
3428;BME280;1727;42.624;23.406;2023-04-19T09:34:22;94445.66;;;14.44;73.49
3428;BME280;1727;42.624;23.406;2023-04-19T09:36:50;94432.28;;;14.37;72.77
3428;BME280;1727;42.624;23.406;2023-04-19T09:39:27;94431.78;;;14.34;75.16
3428;BME280;1727;42.624;23.406;2023-04-19T09:41:54;94436.94;;;14.60;74.55
3428;BME280;1727;42.624;23.406;2023-04-19T09:44:22;94429.50;;;14.63;71.63
3428;BME280;1727;42.624;23.406;2023-04-19T09:46:49;94437.44;;;14.79;71.75
3428;BME280;1727;42.624;23.406;2023-04-19T09:49:18;94432.44;;;14.93;71.78
3428;BME280;1727;42.624;23.406;2023-04-19T09:51:46;94437.38;;;14.96;69.41
3428;BME280;1727;42.624;23.406;2023-04-19T09:54:16;94431.75;;;14.99;70.51
3428;BME280;1727;42.624;23.406;2023-04-19T09:56:44;94429.75;;;15.17;73.35
3428;BME280;1727;42.624;23.406;2023-04-19T09:59:12;94423.91;;;15.30;69.13
3428;BME280;1727;42.624;23.406;2023-04-19T10:01:42;94415.81;;;15.31;67.72
3428;BME280;1727;42.624;23.406;2023-04-19T10:04:09;94419.72;;;15.52;69.91
3428;BME280;1727;42.624;23.406;2023-04-19T10:06:37;94414.75;;;15.65;67.29
3428;BME280;1727;42.624;23.406;2023-04-19T10:09:05;94416.78;;;15.86;65.95
3428;BME280;1727;42.624;23.406;2023-04-19T10:11:35;94412.69;;;16.06;67.46
3428;BME280;1727;42.624;23.406;2023-04-19T10:14:05;94415.72;;;16.26;65.47
3428;BME280;1727;42.624;23.406;2023-04-19T10:16:32;94407.41;;;16.29;66.27
3428;BME280;1727;42.624;23.406;2023-04-19T10:19:01;94407.72;;;16.34;62.36
3428;BME280;1727;42.624;23.406;2023-04-19T10:21:28;94397.38;;;16.24;63.17
3428;BME280;1727;42.624;23.406;2023-04-19T10:23:56;94398.44;;;15.84;64.34
3428;BME280;1727;42.624;23.406;2023-04-19T10:26:24;94398.06;;;15.87;64.53
3428;BME280;1727;42.624;23.406;2023-04-19T10:28:53;94392.41;;;15.98;68.01
3428;BME280;1727;42.624;23.406;2023-04-19T10:31:22;94393.00;;;16.08;65.16
3428;BME280;1727;42.624;23.406;2023-04-19T10:33:51;94385.34;;;16.14;65.76
3428;BME280;1727;42.624;23.406;2023-04-19T10:36:19;94381.34;;;16.18;64.53
3428;BME280;1727;42.624;23.406;2023-04-19T10:38:47;94378.22;;;16.14;62.13
3428;BME280;1727;42.624;23.406;2023-04-19T10:41:17;94393.34;;;16.05;60.82
3428;BME280;1727;42.624;23.406;2023-04-19T10:43:45;94378.38;;;16.21;62.39
3428;BME280;1727;42.624;23.406;2023-04-19T10:46:16;94381.22;;;16.34;63.00
3428;BME280;1727;42.624;23.406;2023-04-19T10:49:04;94368.78;;;16.20;63.04
3428;BME280;1727;42.624;23.406;2023-04-19T10:51:33;94371.06;;;16.23;63.83
3428;BME280;1727;42.624;23.406;2023-04-19T10:54:01;94358.28;;;16.03;62.70
3428;BME280;1727;42.624;23.406;2023-04-19T10:56:59;94361.56;;;15.83;62.55
3428;BME280;1727;42.624;23.406;2023-04-19T10:59:28;94370.84;;;15.78;64.19
3428;BME280;1727;42.624;23.406;2023-04-19T11:01:57;94364.25;;;15.74;63.81
3428;BME280;1727;42.624;23.406;2023-04-19T11:04:56;94362.56;;;15.82;64.68
3428;BME280;1727;42.624;23.406;2023-04-19T11:07:23;94358.66;;;16.00;64.30
3428;BME280;1727;42.624;23.406;2023-04-19T11:09:51;94351.81;;;16.06;63.08
3428;BME280;1727;42.624;23.406;2023-04-19T11:12:19;94358.56;;;16.31;64.63
3428;BME280;1727;42.624;23.406;2023-04-19T11:14:48;94358.38;;;16.56;61.58
3428;BME280;1727;42.624;23.406;2023-04-19T11:17:19;94355.13;;;16.46;61.03
3428;BME280;1727;42.624;23.406;2023-04-19T11:19:52;94359.31;;;16.40;61.01
3428;BME280;1727;42.624;23.406;2023-04-19T11:22:24;94359.69;;;16.37;59.88
3428;BME280;1727;42.624;23.406;2023-04-19T11:24:51;94358.13;;;16.28;59.81
3428;BME280;1727;42.624;23.406;2023-04-19T11:27:17;94343.34;;;16.33;60.83
3428;BME280;1727;42.624;23.406;2023-04-19T11:29:44;94352.38;;;16.39;60.82
3428;BME280;1727;42.624;23.406;2023-04-19T11:32:11;94356.97;;;16.45;58.73
3428;BME280;1727;42.624;23.406;2023-04-19T11:34:39;94360.03;;;16.57;58.91
3428;BME280;1727;42.624;23.406;2023-04-19T11:37:07;94356.00;;;16.61;57.66
3428;BME280;1727;42.624;23.406;2023-04-19T11:39:44;94356.00;;;16.61;57.50
3428;BME280;1727;42.624;23.406;2023-04-19T11:42:16;94355.78;;;16.70;57.03
3428;BME280;1727;42.624;23.406;2023-04-19T11:44:47;94352.47;;;16.68;57.42
3428;BME280;1727;42.624;23.406;2023-04-19T11:47:14;94345.88;;;16.64;57.52
3428;BME280;1727;42.624;23.406;2023-04-19T11:49:43;94330.22;;;17.07;64.10
3428;BME280;1727;42.624;23.406;2023-04-19T11:52:10;94342.19;;;17.18;57.15
3428;BME280;1727;42.624;23.406;2023-04-19T11:54:37;94348.47;;;17.31;57.61
3428;BME280;1727;42.624;23.406;2023-04-19T11:57:05;94349.28;;;17.32;56.26
3428;BME280;1727;42.624;23.406;2023-04-19T11:59:33;94329.84;;;17.61;58.75
3428;BME280;1727;42.624;23.406;2023-04-19T12:02:06;94336.34;;;18.09;54.51
3428;BME280;1727;42.624;23.406;2023-04-19T12:04:33;94338.41;;;18.56;53.78
3428;BME280;1727;42.624;23.406;2023-04-19T12:07:02;94337.22;;;18.87;52.22
3428;BME280;1727;42.624;23.406;2023-04-19T12:09:31;94327.19;;;18.82;52.56
3428;BME280;1727;42.624;23.406;2023-04-19T12:11:58;94327.28;;;19.02;50.47
3428;BME280;1727;42.624;23.406;2023-04-19T12:14:26;94319.41;;;19.15;49.13
3428;BME280;1727;42.624;23.406;2023-04-19T12:17:07;94316.53;;;19.10;48.09
3428;BME280;1727;42.624;23.406;2023-04-19T12:19:34;94312.81;;;18.77;49.31
3428;BME280;1727;42.624;23.406;2023-04-19T12:22:27;94312.16;;;18.47;48.14
3428;BME280;1727;42.624;23.406;2023-04-19T12:25:00;94303.16;;;17.99;48.90
3428;BME280;1727;42.624;23.406;2023-04-19T12:27:28;94308.84;;;17.95;49.80
3428;BME280;1727;42.624;23.406;2023-04-19T12:29:54;94316.19;;;17.93;50.59
3428;BME280;1727;42.624;23.406;2023-04-19T12:32:21;94312.31;;;17.75;56.88
3428;BME280;1727;42.624;23.406;2023-04-19T12:34:48;94305.41;;;17.44;60.19
3428;BME280;1727;42.624;23.406;2023-04-19T12:37:15;94317.50;;;17.17;58.03
3428;BME280;1727;42.624;23.406;2023-04-19T12:39:43;94316.50;;;16.89;59.14
3428;BME280;1727;42.624;23.406;2023-04-19T12:42:10;94315.16;;;16.55;60.74
3428;BME280;1727;42.624;23.406;2023-04-19T12:44:36;94315.47;;;16.23;61.06
3428;BME280;1727;42.624;23.406;2023-04-19T12:47:03;94304.66;;;15.87;62.43
3428;BME280;1727;42.624;23.406;2023-04-19T12:49:30;94306.00;;;15.52;63.80
3428;BME280;1727;42.624;23.406;2023-04-19T12:51:57;94317.34;;;15.29;63.89
3428;BME280;1727;42.624;23.406;2023-04-19T12:54:24;94308.06;;;15.10;64.32
3428;BME280;1727;42.624;23.406;2023-04-19T12:56:52;94316.81;;;15.03;64.58
3428;BME280;1727;42.624;23.406;2023-04-19T12:59:19;94308.91;;;14.95;65.89
3428;BME280;1727;42.624;23.406;2023-04-19T13:01:46;94306.34;;;14.78;67.32
3428;BME280;1727;42.624;23.406;2023-04-19T13:04:13;94302.06;;;14.77;67.26
3428;BME280;1727;42.624;23.406;2023-04-19T13:06:40;94306.19;;;14.72;67.48
3428;BME280;1727;42.624;23.406;2023-04-19T13:09:06;94308.03;;;14.63;68.69
3428;BME280;1727;42.624;23.406;2023-04-19T13:11:33;94310.72;;;14.47;68.92
3428;BME280;1727;42.624;23.406;2023-04-19T13:14:02;94317.66;;;14.48;68.97